Cathlamet — WYR7641 — position and weather

sailwx.info

Track history (hours):
 
Tides and Currents Weather Stations Pressure Air Temp Water Temp Dewpoint Dewpoint Depression Visibility Wind Speed Wind Dir Waves Ship Positions

Cathlamet

Owner: WASHINGTON, STATE OF; Dept. of Transportation, OLYMPIA, WA. More information available from US FCC via Universal Licensing System and Coast Guard Vessel Documentation Center.

Last reported at 2015-Mar-04 19:34 UTC. Time now 2015-Mar-04 20:24 UTC.
Position N 47°35' W 122°28'.

Length 100 m.

Type: Passenger vessel. MMSI: 366773070.

Date/timePositionNaut miles runAvg speedWind from/ knotsBaromVisibWave heightAir tempDewpointWater temp
2015-Mar-04 19:34N 47°35' W 122°28'117.0
2015-Mar-04 19:30N 47°35' W 122°27'4 4.0
2015-Mar-04 18:33N 47°36' W 122°22'117.5
2015-Mar-04 18:30N 47°36' W 122°23'1010.5
2015-Mar-04 17:33N 47°34' W 122°38'0 1.2
2015-Mar-04 17:30N 47°34' W 122°37'1212.4
2015-Mar-04 16:33N 47°36' W 122°21'0 0.2
2015-Mar-04 16:14N 47°36' W 122°20'913.9
2015-Mar-04 15:34N 47°35' W 122°34'116.5
2015-Mar-04 15:30N 47°35' W 122°35'3 3.0
2015-Mar-04 14:34N 47°34' W 122°31'113.2
2015-Mar-04 14:29N 47°34' W 122°30'3 3.4
2015-Mar-04 13:33N 47°35' W 122°25'117.2
2015-Mar-04 13:30N 47°34' W 122°27'7 7.9
2015-Mar-04 12:33N 47°34' W 122°37'0 0.0
2015-Mar-04 12:24N 47°34' W 122°37'0 0.0
2015-Mar-04 11:34N 47°34' W 122°37'0 0.0
2015-Mar-04 11:29N 47°34' W 122°37'0 0.0
2015-Mar-04 10:34N 47°34' W 122°37'0 0.0
2015-Mar-04 10:29N 47°34' W 122°37'0 0.0
2015-Mar-04 09:33N 47°34' W 122°37'0 0.0
2015-Mar-04 09:29N 47°34' W 122°37'0 0.0
2015-Mar-04 08:33N 47°34' W 122°37'0 0.0
2015-Mar-04 07:49N 47°34' W 122°37'0 0.0
2015-Mar-04 07:34N 47°34' W 122°37'0 0.0
2015-Mar-04 06:53N 47°34' W 122°37'0 0.0
2015-Mar-04 06:33N 47°34' W 122°37'4 4.5
2015-Mar-04 05:34N 47°34' W 122°31'115.4
2015-Mar-04 05:28N 47°35' W 122°29'2 2.4
2015-Mar-04 04:34N 47°35' W 122°26'116.7
2015-Mar-04 04:28N 47°35' W 122°28'5 5.4
2015-Mar-04 03:33N 47°35' W 122°35'2 9.8
2015-Mar-04 03:23N 47°36' W 122°33'8 9.8
2015-Mar-04 02:32N 47°36' W 122°20'1 3.9
2015-Mar-04 02:23N 47°36' W 122°21'1113.5
2015-Mar-04 01:33N 47°34' W 122°37'0 1.2
2015-Mar-04 01:28N 47°34' W 122°38'9 9.8
2015-Mar-04 00:34N 47°36' W 122°25'018.8
2015-Mar-04 00:33N 47°36' W 122°25'3 2.8
2015-Mar-03 23:33N 47°35' W 122°28'018.8
2015-Mar-03 23:33N 47°35' W 122°28'6 6.3
2015-Mar-03 22:33N 47°34' W 122°38'0 0.0
2015-Mar-03 22:33N 47°34' W 122°38'1111.4
2015-Mar-03 21:33N 47°36' W 122°21'0 0.0
2015-Mar-03 21:33N 47°36' W 122°21'9 9.0
2015-Mar-03 20:33N 47°35' W 122°34'0 8.4
2015-Mar-03 20:32N 47°35' W 122°34'4 4.3
2015-Mar-03 19:33N 47°35' W 122°28'014.4
2015-Mar-03 19:31N 47°35' W 122°28'3 3.2
2015-Mar-03 18:32N 47°36' W 122°23'316.9
2015-Mar-03 18:21N 47°35' W 122°27'7 8.7
2015-Mar-03 17:33N 47°34' W 122°38'0 0.0
2015-Mar-03 17:31N 47°34' W 122°38'1211.7
2015-Mar-03 16:31N 47°36' W 122°20'3 5.9
2015-Mar-03 16:00N 47°36' W 122°25'613.9
2015-Mar-03 15:33N 47°35' W 122°34'114.9
2015-Mar-03 15:30N 47°35' W 122°35'2 2.4
2015-Mar-03 14:33N 47°34' W 122°32'113.0
2015-Mar-03 14:29N 47°34' W 122°30'5 5.1
2015-Mar-03 13:33N 47°36' W 122°24'115.8
2015-Mar-03 13:29N 47°36' W 122°25'8 8.9
2015-Mar-03 12:33N 47°34' W 122°37'0 0.0
2015-Mar-03 12:29N 47°34' W 122°37'0 0.0
2015-Mar-03 11:33N 47°34' W 122°37'0 0.0
2015-Mar-03 11:19N 47°34' W 122°37'0 0.0
2015-Mar-03 10:33N 47°34' W 122°37'0 0.0
2015-Mar-03 10:14N 47°34' W 122°37'0 0.0
2015-Mar-03 09:33N 47°34' W 122°37'0 0.0
2015-Mar-03 09:29N 47°34' W 122°37'0 0.0
2015-Mar-03 08:33N 47°34' W 122°37'0 0.0
2015-Mar-03 08:29N 47°34' W 122°37'0 0.0
2015-Mar-03 07:33N 47°34' W 122°37'0 0.0
2015-Mar-03 07:33N 47°34' W 122°37'0 0.0
2015-Mar-03 07:08N 47°34' W 122°37'0 0.0
2015-Mar-03 06:33N 47°34' W 122°37'5 5.1
2015-Mar-03 05:34N 47°34' W 122°30'0 5.5
2015-Mar-03 05:33N 47°34' W 122°30'3 3.0
2015-Mar-03 04:33N 47°35' W 122°26'0 0.0
2015-Mar-03 04:33N 47°35' W 122°26'6 6.2
2015-Mar-03 03:33N 47°35' W 122°35'011.8
2015-Mar-03 03:32N 47°35' W 122°35'10 9.0
2015-Mar-03 02:28N 47°36' W 122°20'1 6.1
2015-Mar-03 02:22N 47°36' W 122°21'1113.9
2015-Mar-03 01:33N 47°34' W 122°38'0 0.0
2015-Mar-03 01:22N 47°34' W 122°38'910.9
2015-Mar-03 00:33N 47°36' W 122°25'012.4
2015-Mar-03 00:32N 47°36' W 122°24'3 2.9
2015-Mar-02 23:33N 47°35' W 122°28'013.7
2015-Mar-02 23:32N 47°34' W 122°29'6 6.2
2015-Mar-02 22:33N 47°34' W 122°38'0 0.2
2015-Mar-02 22:32N 47°34' W 122°38'1111.6
2015-Mar-02 21:33N 47°36' W 122°21'1 1.5
2015-Mar-02 21:12N 47°36' W 122°22'913.6
2015-Mar-02 20:33N 47°35' W 122°35'216.2
2015-Mar-02 20:26N 47°34' W 122°37'6 6.4
2015-Mar-02 19:33N 47°35' W 122°29'115.1
2015-Mar-02 19:31N 47°35' W 122°28'4 4.4
2015-Mar-02 18:34N 47°36' W 122°22'115.2
2015-Mar-02 18:31N 47°36' W 122°23'1010.5
2015-Mar-02 17:33N 47°34' W 122°38'6 8.7
2015-Mar-02 16:54N 47°34' W 122°29'616.9
2015-Mar-02 16:33N 47°36' W 122°21'0 2.9
2015-Mar-02 16:28N 47°36' W 122°20'1010.5
2015-Mar-02 15:33N 47°35' W 122°34'1 1.4
2015-Mar-02 14:52N 47°34' W 122°35'310.0
2015-Mar-02 14:34N 47°34' W 122°31'015.1
2015-Mar-02 14:32N 47°34' W 122°30'5 4.9
2015-Mar-02 13:33N 47°36' W 122°24'014.0
2015-Mar-02 13:32N 47°36' W 122°24'9 9.3
2015-Mar-02 12:33N 47°34' W 122°37'0 0.0
2015-Mar-02 12:32N 47°34' W 122°37'0 0.0
2015-Mar-02 11:33N 47°34' W 122°37'0 0.1
2015-Mar-02 11:31N 47°34' W 122°37'0 0.0
2015-Mar-02 10:34N 47°34' W 122°37'0 0.1
2015-Mar-02 10:31N 47°34' W 122°37'0 0.0
2015-Mar-02 09:33N 47°34' W 122°37'0 0.0
2015-Mar-02 09:31N 47°34' W 122°37'0 0.0
2015-Mar-02 08:33N 47°34' W 122°37'0 0.0
2015-Mar-02 08:30N 47°34' W 122°37'0 0.0
2015-Mar-02 07:33N 47°34' W 122°37'0 0.1
2015-Mar-02 07:30N 47°34' W 122°37'0 0.0
2015-Mar-02 07:05N 47°34' W 122°37'0 0.0
2015-Mar-02 06:34N 47°34' W 122°37'4 4.3
2015-Mar-02 05:34N 47°34' W 122°31'115.7
2015-Mar-02 05:30N 47°34' W 122°30'2 2.6
2015-Mar-02 04:34N 47°35' W 122°26'116.6
2015-Mar-02 04:30N 47°35' W 122°28'5 5.3
2015-Mar-02 03:33N 47°35' W 122°35'112.5
2015-Mar-02 03:29N 47°35' W 122°34'9 9.8
2015-Mar-02 02:33N 47°36' W 122°20'1 3.8
2015-Mar-02 02:24N 47°36' W 122°21'1113.2
2015-Mar-02 01:33N 47°34' W 122°38'4 6.3
2015-Mar-02 00:59N 47°36' W 122°33'613.4
2015-Mar-02 00:33N 47°36' W 122°24'215.6
2015-Mar-02 00:24N 47°36' W 122°21'5 6.0
2015-Mar-01 23:33N 47°35' W 122°28'217.9
2015-Mar-01 23:28N 47°34' W 122°30'5 5.6
2015-Mar-01 22:33N 47°34' W 122°38'811.4
2015-Mar-01 21:53N 47°35' W 122°26'4 7.0
2015-Mar-01 21:19N 47°36' W 122°21'216.1
2015-Mar-01 21:13N 47°36' W 122°23'812.3
2015-Mar-01 20:33N 47°35' W 122°35'5 4.8
2015-Mar-01 19:33N 47°35' W 122°28'017.0
2015-Mar-01 19:33N 47°35' W 122°28'4 3.8
2015-Mar-01 18:33N 47°36' W 122°22'517.8
2015-Mar-01 18:18N 47°34' W 122°29'6 8.1
2015-Mar-01 17:34N 47°34' W 122°38'1111.3
2015-Mar-01 16:36N 47°36' W 122°22'115.8
2015-Mar-01 16:33N 47°36' W 122°21'5 7.9
2015-Mar-01 15:52N 47°34' W 122°28'413.3
2015-Mar-01 15:33N 47°35' W 122°34'314.4
2015-Mar-01 15:22N 47°34' W 122°37'4 4.7
2015-Mar-01 14:33N 47°34' W 122°32'415.0
2015-Mar-01 14:16N 47°36' W 122°26'4 5.0
2015-Mar-01 13:33N 47°36' W 122°20'1 9.3
2015-Mar-01 13:26N 47°36' W 122°22'1112.3
2015-Mar-01 12:33N 47°34' W 122°37'0 0.0
2015-Mar-01 11:34N 47°34' W 122°37'0 0.0
2015-Mar-01 11:15N 47°34' W 122°37'0 0.0
2015-Mar-01 10:33N 47°34' W 122°37'0 0.0
2015-Mar-01 09:50N 47°34' W 122°37'0 0.0
2015-Mar-01 09:33N 47°34' W 122°37'0 0.0
2015-Mar-01 08:34N 47°34' W 122°37'0 0.0
2015-Mar-01 07:33N 47°34' W 122°37'0 0.0
2015-Mar-01 06:33N 47°34' W 122°37'5 5.3
2015-Mar-01 05:33N 47°34' W 122°30'014.3
2015-Mar-01 05:33N 47°34' W 122°29'1 0.7
2015-Mar-01 04:34N 47°35' W 122°28'6 9.0
2015-Mar-01 03:53N 47°34' W 122°38'3 8.2
2015-Mar-01 03:33N 47°35' W 122°34'1 9.6
2015-Mar-01 03:27N 47°36' W 122°33'8 9.2
2015-Mar-01 02:32N 47°36' W 122°20'0 7.1
2015-Mar-01 02:28N 47°36' W 122°21'1112.4
2015-Mar-01 01:33N 47°34' W 122°38'0 1.1
2015-Mar-01 01:17N 47°33' W 122°37'912.0
2015-Mar-01 00:34N 47°36' W 122°25'019.6
2015-Mar-01 00:32N 47°36' W 122°24'3 3.0
2015-Feb-28 23:33N 47°35' W 122°28'217.1
2015-Feb-28 23:27N 47°34' W 122°30'5 5.3
2015-Feb-28 22:34N 47°34' W 122°38'4 7.7
2015-Feb-28 22:01N 47°34' W 122°31'816.3
2015-Feb-28 21:33N 47°36' W 122°21'0 2.1
2015-Feb-28 21:31N 47°36' W 122°20'1010.2
2015-Feb-28 20:33N 47°35' W 122°35'215.7
2015-Feb-28 20:26N 47°34' W 122°37'5 6.1
2015-Feb-28 19:33N 47°35' W 122°29'116.2
2015-Feb-28 19:31N 47°35' W 122°28'4 4.0
2015-Feb-28 18:34N 47°36' W 122°23'115.0
2015-Feb-28 18:31N 47°36' W 122°23'1010.2
2015-Feb-28 17:33N 47°34' W 122°38'0 0.6
2015-Feb-28 17:26N 47°34' W 122°37'1113.0
2015-Feb-28 16:33N 47°36' W 122°21'0 0.1
2015-Feb-28 16:10N 47°36' W 122°21'914.5
2015-Feb-28 15:33N 47°35' W 122°34'114.9
2015-Feb-28 15:30N 47°35' W 122°35'2 2.1
2015-Feb-28 14:33N 47°34' W 122°32'5 5.4
2015-Feb-28 13:33N 47°36' W 122°24'9 9.2
2015-Feb-28 12:33N 47°34' W 122°37'0 0.0
2015-Feb-28 11:33N 47°34' W 122°37'0 0.0
2015-Feb-28 10:33N 47°34' W 122°37'0 0.0
2015-Feb-28 09:32N 47°34' W 122°37'0 0.0
2015-Feb-28 08:33N 47°34' W 122°37'0 0.0
2015-Feb-28 07:32N 47°34' W 122°37'0 0.0
2015-Feb-28 06:32N 47°34' W 122°37'4 4.6
2015-Feb-28 05:33N 47°34' W 122°31'617.1
2015-Feb-28 05:13N 47°36' W 122°23'3 3.8
2015-Feb-28 04:33N 47°35' W 122°26'015.2
2015-Feb-28 04:32N 47°35' W 122°27'6 5.8
2015-Feb-28 03:33N 47°35' W 122°35'214.5
2015-Feb-28 03:27N 47°36' W 122°33'9 8.7
2015-Feb-28 02:27N 47°36' W 122°20'414.8
2015-Feb-28 02:12N 47°35' W 122°26'812.6
2015-Feb-28 01:33N 47°34' W 122°38'9 9.2
2015-Feb-28 00:32N 47°36' W 122°24'2 3.1
2015-Feb-27 23:50N 47°36' W 122°21'516.2
2015-Feb-27 23:33N 47°35' W 122°27'116.8
2015-Feb-27 23:30N 47°34' W 122°28'6 6.6
2015-Feb-27 22:33N 47°34' W 122°38'3 8.9
2015-Feb-27 22:15N 47°35' W 122°34'912.2
2015-Feb-27 21:29N 47°36' W 122°20'0 0.0
2015-Feb-27 21:29N 47°36' W 122°20'910.2
2015-Feb-27 20:33N 47°35' W 122°34'310.8
2015-Feb-27 20:19N 47°34' W 122°38'6 8.1
2015-Feb-27 19:33N 47°35' W 122°28'417.0
2015-Feb-27 19:19N 47°36' W 122°23'0 0.2
2015-Feb-27 18:33N 47°36' W 122°23'516.4
2015-Feb-27 18:13N 47°34' W 122°30'5 7.6
2015-Feb-27 17:33N 47°34' W 122°38'0 2.3
2015-Feb-27 17:24N 47°33' W 122°37'1213.5
2015-Feb-27 16:33N 47°36' W 122°21'0 0.4
2015-Feb-27 16:13N 47°36' W 122°21'913.6
2015-Feb-27 15:33N 47°35' W 122°34'116.2
2015-Feb-27 15:28N 47°34' W 122°36'2 2.5
2015-Feb-27 14:34N 47°34' W 122°32'114.1
2015-Feb-27 14:28N 47°34' W 122°30'5 5.1
2015-Feb-27 13:34N 47°36' W 122°24'116.7
2015-Feb-27 13:29N 47°35' W 122°26'8 8.7
2015-Feb-27 12:34N 47°34' W 122°37'0 0.0
2015-Feb-27 12:12N 47°34' W 122°37'0 0.0
2015-Feb-27 11:33N 47°34' W 122°37'0 0.3
2015-Feb-27 11:32N 47°34' W 122°37'0 0.0
2015-Feb-27 10:29N 47°34' W 122°37'0 0.0
2015-Feb-27 09:47N 47°34' W 122°37'0 0.0
2015-Feb-27 09:34N 47°34' W 122°37'0 0.0
2015-Feb-27 08:57N 47°34' W 122°37'0 0.0
2015-Feb-27 08:33N 47°34' W 122°37'0 0.2
2015-Feb-27 08:31N 47°34' W 122°37'0 0.0
2015-Feb-27 07:33N 47°34' W 122°37'0 0.1
2015-Feb-27 07:27N 47°34' W 122°37'0 0.0
2015-Feb-27 06:51N 47°34' W 122°37'0 0.0
2015-Feb-27 06:34N 47°34' W 122°37'5 4.7
2015-Feb-27 05:34N 47°34' W 122°30'119.4
2015-Feb-27 05:31N 47°34' W 122°29'2 2.3
2015-Feb-27 04:33N 47°35' W 122°26'217.4
2015-Feb-27 04:26N 47°34' W 122°29'4 5.0
2015-Feb-27 03:33N 47°34' W 122°36'411.4
2015-Feb-27 03:10N 47°34' W 122°29'610.0
2015-Feb-27 02:33N 47°36' W 122°20'1 5.7
2015-Feb-27 02:21N 47°36' W 122°22'1113.4
2015-Feb-27 01:33N 47°34' W 122°37'0 0.7
2015-Feb-27 01:29N 47°34' W 122°38'9 9.6
2015-Feb-27 00:33N 47°36' W 122°25'2 2.4
2015-Feb-26 23:48N 47°36' W 122°22'417.0
2015-Feb-26 23:33N 47°35' W 122°28'711.4
2015-Feb-26 22:59N 47°34' W 122°38'0 1.1
2015-Feb-26 22:34N 47°33' W 122°37'314.9
2015-Feb-26 22:23N 47°35' W 122°34'9 9.6
2015-Feb-26 21:24N 47°36' W 122°20'0 0.1
2015-Feb-26 21:20N 47°36' W 122°20'1013.6
2015-Feb-26 20:33N 47°34' W 122°36'116.2
2015-Feb-26 20:29N 47°34' W 122°37'6 6.5
2015-Feb-26 19:34N 47°35' W 122°28'116.8
2015-Feb-26 19:29N 47°35' W 122°27'3 3.7
2015-Feb-26 18:33N 47°36' W 122°22'117.0
2015-Feb-26 18:29N 47°36' W 122°24'1010.4
2015-Feb-26 17:33N 47°34' W 122°38'0 1.8
2015-Feb-26 17:23N 47°33' W 122°37'1113.7
2015-Feb-26 16:33N 47°36' W 122°21'0 0.0
2015-Feb-26 16:33N 47°36' W 122°21'9 8.9
2015-Feb-26 15:34N 47°35' W 122°34'311.1
2015-Feb-26 15:18N 47°34' W 122°38'4 5.1
2015-Feb-26 14:33N 47°34' W 122°32'0 4.3
2015-Feb-26 14:33N 47°34' W 122°32'6 5.5
2015-Feb-26 13:33N 47°36' W 122°24'9 9.3
2015-Feb-26 12:33N 47°34' W 122°37'0 0.0
2015-Feb-26 12:06N 47°34' W 122°37'0 0.0
2015-Feb-26 11:33N 47°34' W 122°37'0 0.0
2015-Feb-26 11:21N 47°34' W 122°37'0 0.0
2015-Feb-26 10:33N 47°34' W 122°37'0 0.0
2015-Feb-26 10:21N 47°34' W 122°37'0 0.0
2015-Feb-26 09:33N 47°34' W 122°37'0 0.0
2015-Feb-26 08:33N 47°34' W 122°37'0 0.0
2015-Feb-26 07:38N 47°34' W 122°37'0 0.1
2015-Feb-26 07:33N 47°34' W 122°37'0 0.0
2015-Feb-26 07:08N 47°34' W 122°37'0 0.0
2015-Feb-26 06:58N 47°34' W 122°37'0 0.0
2015-Feb-26 06:33N 47°34' W 122°37'5 4.6
2015-Feb-26 05:34N 47°34' W 122°31'217.0
2015-Feb-26 05:28N 47°35' W 122°28'1 1.3
2015-Feb-26 04:33N 47°35' W 122°27'012.1
2015-Feb-26 04:33N 47°35' W 122°27'6 6.4
2015-Feb-26 03:33N 47°34' W 122°36'048.6
2015-Feb-26 03:33N 47°34' W 122°36'1110.3
2015-Feb-26 02:30N 47°36' W 122°20'0 3.9
2015-Feb-26 02:24N 47°36' W 122°21'1113.4
2015-Feb-26 01:33N 47°34' W 122°38'6 7.3
2015-Feb-26 00:43N 47°34' W 122°29'316.4
2015-Feb-26 00:31N 47°36' W 122°24'116.4
2015-Feb-26 00:28N 47°36' W 122°23'3 3.6
2015-Feb-25 23:34N 47°35' W 122°27'117.7
2015-Feb-25 23:32N 47°35' W 122°28'6 6.6
2015-Feb-25 22:33N 47°34' W 122°38'5 8.1
2015-Feb-25 21:57N 47°34' W 122°30'716.3
2015-Feb-25 21:33N 47°36' W 122°21'0 1.2
2015-Feb-25 21:12N 47°36' W 122°20'914.2
2015-Feb-25 20:34N 47°35' W 122°34'120.8
2015-Feb-25 20:31N 47°35' W 122°35'4 4.3
2015-Feb-25 19:33N 47°35' W 122°29'015.0
2015-Feb-25 19:32N 47°35' W 122°28'4 4.6
2015-Feb-25 18:33N 47°36' W 122°22'217.4
2015-Feb-25 18:26N 47°36' W 122°25'910.0
2015-Feb-25 17:33N 47°34' W 122°38'1 3.1
2015-Feb-25 17:21N 47°34' W 122°37'1113.8
2015-Feb-25 16:33N 47°36' W 122°21'5 7.1
2015-Feb-25 15:55N 47°35' W 122°27'512.8
2015-Feb-25 15:33N 47°35' W 122°34'216.8
2015-Feb-25 15:25N 47°34' W 122°36'3 3.5
2015-Feb-25 14:34N 47°34' W 122°32'215.0
2015-Feb-25 14:24N 47°35' W 122°29'3 3.8
2015-Feb-25 13:33N 47°36' W 122°24'317.3
2015-Feb-25 13:24N 47°35' W 122°28'6 7.7
2015-Feb-25 12:34N 47°34' W 122°37'0 0.1
2015-Feb-25 12:29N 47°34' W 122°37'0 0.0
2015-Feb-25 11:33N 47°34' W 122°37'0 0.0
2015-Feb-25 11:23N 47°34' W 122°37'0 0.0
2015-Feb-25 10:33N 47°34' W 122°37'0 0.0
2015-Feb-25 09:43N 47°34' W 122°37'0 0.0
2015-Feb-25 09:34N 47°34' W 122°37'0 0.0
2015-Feb-25 09:22N 47°34' W 122°37'0 0.0
2015-Feb-25 08:33N 47°34' W 122°37'0 0.5
2015-Feb-25 08:33N 47°34' W 122°37'0 0.0
2015-Feb-25 07:34N 47°34' W 122°37'0 0.0
2015-Feb-25 07:17N 47°34' W 122°37'0 0.0
2015-Feb-25 06:37N 47°34' W 122°37'0 0.0
2015-Feb-25 06:34N 47°34' W 122°37'5 5.1
2015-Feb-25 05:33N 47°34' W 122°30'517.3
2015-Feb-25 05:16N 47°36' W 122°23'4 5.1
2015-Feb-25 04:33N 47°35' W 122°28'510.9
2015-Feb-25 04:07N 47°35' W 122°35'1 1.6
2015-Feb-25 03:33N 47°35' W 122°34'713.6
2015-Feb-25 03:02N 47°36' W 122°24'2 4.8
2015-Feb-25 02:33N 47°36' W 122°20'1211.8
2015-Feb-25 01:33N 47°34' W 122°37'4 5.6
2015-Feb-25 00:54N 47°35' W 122°32'515.1
2015-Feb-25 00:33N 47°36' W 122°25'1 1.8
2015-Feb-24 23:47N 47°36' W 122°23'416.4
2015-Feb-24 23:33N 47°35' W 122°28'513.2
2015-Feb-24 23:12N 47°35' W 122°34'3 3.9
2015-Feb-24 22:34N 47°34' W 122°38'1211.4
2015-Feb-24 21:32N 47°36' W 122°20'1 3.0
2015-Feb-24 21:07N 47°36' W 122°22'814.7
2015-Feb-24 20:34N 47°35' W 122°34'014.3
2015-Feb-24 20:33N 47°35' W 122°35'4 4.4
2015-Feb-24 19:33N 47°35' W 122°28'119.8
2015-Feb-24 19:31N 47°35' W 122°27'4 4.2
2015-Feb-24 18:33N 47°36' W 122°21'123.7
2015-Feb-24 18:31N 47°36' W 122°23'1010.7
2015-Feb-24 17:33N 47°34' W 122°38'1 4.8
2015-Feb-24 17:27N 47°33' W 122°37'11 9.7
2015-Feb-24 16:17N 47°36' W 122°20'212.9
2015-Feb-24 16:06N 47°36' W 122°24'713.1
2015-Feb-24 15:33N 47°35' W 122°34'2 2.3
2015-Feb-24 14:34N 47°34' W 122°31'213.3
2015-Feb-24 14:25N 47°35' W 122°29'3 3.0
2015-Feb-24 13:33N 47°36' W 122°25'116.9
2015-Feb-24 13:30N 47°35' W 122°26'8 8.1
2015-Feb-24 12:33N 47°34' W 122°37'0 0.0
2015-Feb-24 12:29N 47°34' W 122°37'0 0.0
2015-Feb-24 11:34N 47°34' W 122°37'0 0.0
2015-Feb-24 11:29N 47°34' W 122°37'0 0.0
2015-Feb-24 10:34N 47°34' W 122°37'0 0.0
2015-Feb-24 10:13N 47°34' W 122°37'0 0.0
2015-Feb-24 09:33N 47°34' W 122°37'0 0.0
2015-Feb-24 09:29N 47°34' W 122°37'0 0.0
2015-Feb-24 08:34N 47°34' W 122°37'0 0.0
2015-Feb-24 08:33N 47°34' W 122°37'0 0.0
2015-Feb-24 07:34N 47°34' W 122°37'0 0.0
2015-Feb-24 07:33N 47°34' W 122°37'0 0.0
2015-Feb-24 07:08N 47°34' W 122°37'0 0.0
2015-Feb-24 06:33N 47°34' W 122°37'5 4.7
2015-Feb-24 05:33N 47°34' W 122°30'014.9
2015-Feb-24 05:33N 47°34' W 122°30'3 2.6
2015-Feb-24 04:33N 47°35' W 122°27'0 0.0
2015-Feb-24 04:33N 47°35' W 122°27'6 6.3
2015-Feb-24 03:33N 47°34' W 122°36'713.2
2015-Feb-24 03:03N 47°35' W 122°26'4 7.5
2015-Feb-24 02:33N 47°36' W 122°20'1012.6
2015-Feb-24 01:47N 47°35' W 122°34'310.8
2015-Feb-24 01:33N 47°34' W 122°38'0 0.0
2015-Feb-24 01:32N 47°34' W 122°38'1010.3
2015-Feb-24 00:33N 47°36' W 122°23'4 3.9
2015-Feb-23 23:34N 47°34' W 122°28'215.6
2015-Feb-23 23:24N 47°34' W 122°32'4 4.5
2015-Feb-23 22:34N 47°34' W 122°38'0 3.2
2015-Feb-23 22:25N 47°33' W 122°37'1110.6
2015-Feb-23 21:20N 47°36' W 122°20'2 8.1
2015-Feb-23 21:04N 47°36' W 122°24'714.5
2015-Feb-23 20:34N 47°35' W 122°34'118.1
2015-Feb-23 20:30N 47°34' W 122°36'4 4.8
2015-Feb-23 19:34N 47°35' W 122°29'117.0
2015-Feb-23 19:29N 47°35' W 122°27'4 4.1
2015-Feb-23 18:34N 47°36' W 122°22'117.4
2015-Feb-23 18:29N 47°36' W 122°24'1010.4
2015-Feb-23 17:33N 47°34' W 122°38'6 9.0
2015-Feb-23 16:53N 47°35' W 122°29'516.1
2015-Feb-23 16:33N 47°36' W 122°21'1 2.4
2015-Feb-23 16:08N 47°36' W 122°23'813.8
2015-Feb-23 15:34N 47°35' W 122°34'0 8.1
2015-Feb-23 15:33N 47°35' W 122°34'2 1.9
2015-Feb-23 14:33N 47°34' W 122°32'112.5
2015-Feb-23 14:28N 47°34' W 122°30'4 4.1
2015-Feb-23 13:33N 47°36' W 122°25'910.3
2015-Feb-23 12:43N 47°34' W 122°37'0 0.0
2015-Feb-23 12:33N 47°34' W 122°37'0 0.0
2015-Feb-23 12:33N 47°34' W 122°37'0 0.0
2015-Feb-23 11:33N 47°34' W 122°37'0 0.0
2015-Feb-23 11:33N 47°34' W 122°37'0 0.0
2015-Feb-23 10:33N 47°34' W 122°37'0 0.0
2015-Feb-23 10:32N 47°34' W 122°37'0 0.0
2015-Feb-23 09:33N 47°34' W 122°37'0 0.0
2015-Feb-23 09:32N 47°34' W 122°37'0 0.0
2015-Feb-23 08:33N 47°34' W 122°37'0 0.0
2015-Feb-23 08:33N 47°34' W 122°37'0 0.0
2015-Feb-23 07:33N 47°34' W 122°37'0 0.2
2015-Feb-23 07:32N 47°34' W 122°37'0 0.0
2015-Feb-23 07:02N 47°34' W 122°37'0 0.0
2015-Feb-23 06:33N 47°34' W 122°37'5 4.8
2015-Feb-23 05:33N 47°34' W 122°30'013.9
2015-Feb-23 05:32N 47°34' W 122°30'2 1.9
2015-Feb-23 04:34N 47°35' W 122°27'115.7
2015-Feb-23 04:31N 47°35' W 122°28'4 4.5
2015-Feb-23 03:34N 47°35' W 122°35'111.1
2015-Feb-23 03:26N 47°35' W 122°32'8 8.9
2015-Feb-23 02:33N 47°36' W 122°21'0 0.1
2015-Feb-23 02:31N 47°36' W 122°21'1111.8
2015-Feb-23 01:33N 47°33' W 122°37'0 6.3
2015-Feb-23 01:30N 47°34' W 122°38'9 9.2
2015-Feb-23 00:33N 47°36' W 122°25'115.7
2015-Feb-23 00:31N 47°36' W 122°24'4 3.8
2015-Feb-22 23:33N 47°34' W 122°29'6 6.0
2015-Feb-22 22:33N 47°34' W 122°37'0 4.3
2015-Feb-22 22:33N 47°34' W 122°37'1211.8
2015-Feb-22 21:33N 47°36' W 122°20'0 0.0
2015-Feb-22 21:17N 47°36' W 122°20'1013.9
2015-Feb-22 20:33N 47°35' W 122°35'015.2
2015-Feb-22 20:32N 47°34' W 122°36'5 4.9
2015-Feb-22 19:34N 47°35' W 122°28'  
Track history (hours):
 
Tides and Currents Weather Stations Pressure Air Temp Water Temp Dewpoint Dewpoint Depression Visibility Wind Speed Wind Dir Waves Ship Positions

Cathlamet

Owner: WASHINGTON, STATE OF; Dept. of Transportation, OLYMPIA, WA. More information available from US FCC via Universal Licensing System and Coast Guard Vessel Documentation Center.

Last reported at 2015-Mar-04 19:34 UTC. Time now 2015-Mar-04 20:24 UTC.
Position N 47°35' W 122°28'.

Length 100 m.

Type: Passenger vessel. MMSI: 366773070.

Date/timePositionNaut miles runAvg speedWind from/ knotsBaromVisibWave heightAir tempDewpointWater temp
2015-Mar-04 19:34N 47°35' W 122°28'117.0
2015-Mar-04 19:30N 47°35' W 122°27'4 4.0
2015-Mar-04 18:33N 47°36' W 122°22'117.5
2015-Mar-04 18:30N 47°36' W 122°23'1010.5
2015-Mar-04 17:33N 47°34' W 122°38'0 1.2
2015-Mar-04 17:30N 47°34' W 122°37'1212.4
2015-Mar-04 16:33N 47°36' W 122°21'0 0.2
2015-Mar-04 16:14N 47°36' W 122°20'913.9
2015-Mar-04 15:34N 47°35' W 122°34'116.5
2015-Mar-04 15:30N 47°35' W 122°35'3 3.0
2015-Mar-04 14:34N 47°34' W 122°31'113.2
2015-Mar-04 14:29N 47°34' W 122°30'3 3.4
2015-Mar-04 13:33N 47°35' W 122°25'117.2
2015-Mar-04 13:30N 47°34' W 122°27'7 7.9
2015-Mar-04 12:33N 47°34' W 122°37'0 0.0
2015-Mar-04 12:24N 47°34' W 122°37'0 0.0
2015-Mar-04 11:34N 47°34' W 122°37'0 0.0
2015-Mar-04 11:29N 47°34' W 122°37'0 0.0
2015-Mar-04 10:34N 47°34' W 122°37'0 0.0
2015-Mar-04 10:29N 47°34' W 122°37'0 0.0
2015-Mar-04 09:33N 47°34' W 122°37'0 0.0
2015-Mar-04 09:29N 47°34' W 122°37'0 0.0
2015-Mar-04 08:33N 47°34' W 122°37'0 0.0
2015-Mar-04 07:49N 47°34' W 122°37'0 0.0
2015-Mar-04 07:34N 47°34' W 122°37'0 0.0
2015-Mar-04 06:53N 47°34' W 122°37'0 0.0
2015-Mar-04 06:33N 47°34' W 122°37'4 4.5
2015-Mar-04 05:34N 47°34' W 122°31'115.4
2015-Mar-04 05:28N 47°35' W 122°29'2 2.4
2015-Mar-04 04:34N 47°35' W 122°26'116.7
2015-Mar-04 04:28N 47°35' W 122°28'5 5.4
2015-Mar-04 03:33N 47°35' W 122°35'2 9.8
2015-Mar-04 03:23N 47°36' W 122°33'8 9.8
2015-Mar-04 02:32N 47°36' W 122°20'1 3.9
2015-Mar-04 02:23N 47°36' W 122°21'1113.5
2015-Mar-04 01:33N 47°34' W 122°37'0 1.2
2015-Mar-04 01:28N 47°34' W 122°38'9 9.8
2015-Mar-04 00:34N 47°36' W 122°25'018.8
2015-Mar-04 00:33N 47°36' W 122°25'3 2.8
2015-Mar-03 23:33N 47°35' W 122°28'018.8
2015-Mar-03 23:33N 47°35' W 122°28'6 6.3
2015-Mar-03 22:33N 47°34' W 122°38'0 0.0
2015-Mar-03 22:33N 47°34' W 122°38'1111.4
2015-Mar-03 21:33N 47°36' W 122°21'0 0.0
2015-Mar-03 21:33N 47°36' W 122°21'9 9.0
2015-Mar-03 20:33N 47°35' W 122°34'0 8.4
2015-Mar-03 20:32N 47°35' W 122°34'4 4.3
2015-Mar-03 19:33N 47°35' W 122°28'014.4
2015-Mar-03 19:31N 47°35' W 122°28'3 3.2
2015-Mar-03 18:32N 47°36' W 122°23'316.9
2015-Mar-03 18:21N 47°35' W 122°27'7 8.7
2015-Mar-03 17:33N 47°34' W 122°38'0 0.0
2015-Mar-03 17:31N 47°34' W 122°38'1211.7
2015-Mar-03 16:31N 47°36' W 122°20'3 5.9
2015-Mar-03 16:00N 47°36' W 122°25'613.9
2015-Mar-03 15:33N 47°35' W 122°34'114.9
2015-Mar-03 15:30N 47°35' W 122°35'2 2.4
2015-Mar-03 14:33N 47°34' W 122°32'113.0
2015-Mar-03 14:29N 47°34' W 122°30'5 5.1
2015-Mar-03 13:33N 47°36' W 122°24'115.8
2015-Mar-03 13:29N 47°36' W 122°25'8 8.9
2015-Mar-03 12:33N 47°34' W 122°37'0 0.0
2015-Mar-03 12:29N 47°34' W 122°37'0 0.0
2015-Mar-03 11:33N 47°34' W 122°37'0 0.0
2015-Mar-03 11:19N 47°34' W 122°37'0 0.0
2015-Mar-03 10:33N 47°34' W 122°37'0 0.0
2015-Mar-03 10:14N 47°34' W 122°37'0 0.0
2015-Mar-03 09:33N 47°34' W 122°37'0 0.0
2015-Mar-03 09:29N 47°34' W 122°37'0 0.0
2015-Mar-03 08:33N 47°34' W 122°37'0 0.0
2015-Mar-03 08:29N 47°34' W 122°37'0 0.0
2015-Mar-03 07:33N 47°34' W 122°37'0 0.0
2015-Mar-03 07:33N 47°34' W 122°37'0 0.0
2015-Mar-03 07:08N 47°34' W 122°37'0 0.0
2015-Mar-03 06:33N 47°34' W 122°37'5 5.1
2015-Mar-03 05:34N 47°34' W 122°30'0 5.5
2015-Mar-03 05:33N 47°34' W 122°30'3 3.0
2015-Mar-03 04:33N 47°35' W 122°26'0 0.0
2015-Mar-03 04:33N 47°35' W 122°26'6 6.2
2015-Mar-03 03:33N 47°35' W 122°35'011.8
2015-Mar-03 03:32N 47°35' W 122°35'10 9.0
2015-Mar-03 02:28N 47°36' W 122°20'1 6.1
2015-Mar-03 02:22N 47°36' W 122°21'1113.9
2015-Mar-03 01:33N 47°34' W 122°38'0 0.0
2015-Mar-03 01:22N 47°34' W 122°38'910.9
2015-Mar-03 00:33N 47°36' W 122°25'012.4
2015-Mar-03 00:32N 47°36' W 122°24'3 2.9
2015-Mar-02 23:33N 47°35' W 122°28'013.7
2015-Mar-02 23:32N 47°34' W 122°29'6 6.2
2015-Mar-02 22:33N 47°34' W 122°38'0 0.2
2015-Mar-02 22:32N 47°34' W 122°38'1111.6
2015-Mar-02 21:33N 47°36' W 122°21'1 1.5
2015-Mar-02 21:12N 47°36' W 122°22'913.6
2015-Mar-02 20:33N 47°35' W 122°35'216.2
2015-Mar-02 20:26N 47°34' W 122°37'6 6.4
2015-Mar-02 19:33N 47°35' W 122°29'115.1
2015-Mar-02 19:31N 47°35' W 122°28'4 4.4
2015-Mar-02 18:34N 47°36' W 122°22'115.2
2015-Mar-02 18:31N 47°36' W 122°23'1010.5
2015-Mar-02 17:33N 47°34' W 122°38'6 8.7
2015-Mar-02 16:54N 47°34' W 122°29'616.9
2015-Mar-02 16:33N 47°36' W 122°21'0 2.9
2015-Mar-02 16:28N 47°36' W 122°20'1010.5
2015-Mar-02 15:33N 47°35' W 122°34'1 1.4
2015-Mar-02 14:52N 47°34' W 122°35'310.0
2015-Mar-02 14:34N 47°34' W 122°31'015.1
2015-Mar-02 14:32N 47°34' W 122°30'5 4.9
2015-Mar-02 13:33N 47°36' W 122°24'014.0
2015-Mar-02 13:32N 47°36' W 122°24'9 9.3
2015-Mar-02 12:33N 47°34' W 122°37'0 0.0
2015-Mar-02 12:32N 47°34' W 122°37'0 0.0
2015-Mar-02 11:33N 47°34' W 122°37'0 0.1
2015-Mar-02 11:31N 47°34' W 122°37'0 0.0
2015-Mar-02 10:34N 47°34' W 122°37'0 0.1
2015-Mar-02 10:31N 47°34' W 122°37'0 0.0
2015-Mar-02 09:33N 47°34' W 122°37'0 0.0
2015-Mar-02 09:31N 47°34' W 122°37'0 0.0
2015-Mar-02 08:33N 47°34' W 122°37'0 0.0
2015-Mar-02 08:30N 47°34' W 122°37'0 0.0
2015-Mar-02 07:33N 47°34' W 122°37'0 0.1
2015-Mar-02 07:30N 47°34' W 122°37'0 0.0
2015-Mar-02 07:05N 47°34' W 122°37'0 0.0
2015-Mar-02 06:34N 47°34' W 122°37'4 4.3
2015-Mar-02 05:34N 47°34' W 122°31'115.7
2015-Mar-02 05:30N 47°34' W 122°30'2 2.6
2015-Mar-02 04:34N 47°35' W 122°26'116.6
2015-Mar-02 04:30N 47°35' W 122°28'5 5.3
2015-Mar-02 03:33N 47°35' W 122°35'112.5
2015-Mar-02 03:29N 47°35' W 122°34'9 9.8
2015-Mar-02 02:33N 47°36' W 122°20'1 3.8
2015-Mar-02 02:24N 47°36' W 122°21'1113.2
2015-Mar-02 01:33N 47°34' W 122°38'4 6.3
2015-Mar-02 00:59N 47°36' W 122°33'613.4
2015-Mar-02 00:33N 47°36' W 122°24'215.6
2015-Mar-02 00:24N 47°36' W 122°21'5 6.0
2015-Mar-01 23:33N 47°35' W 122°28'217.9
2015-Mar-01 23:28N 47°34' W 122°30'5 5.6
2015-Mar-01 22:33N 47°34' W 122°38'811.4
2015-Mar-01 21:53N 47°35' W 122°26'4 7.0
2015-Mar-01 21:19N 47°36' W 122°21'216.1
2015-Mar-01 21:13N 47°36' W 122°23'812.3
2015-Mar-01 20:33N 47°35' W 122°35'5 4.8
2015-Mar-01 19:33N 47°35' W 122°28'017.0
2015-Mar-01 19:33N 47°35' W 122°28'4 3.8
2015-Mar-01 18:33N 47°36' W 122°22'517.8
2015-Mar-01 18:18N 47°34' W 122°29'6 8.1
2015-Mar-01 17:34N 47°34' W 122°38'1111.3
2015-Mar-01 16:36N 47°36' W 122°22'115.8
2015-Mar-01 16:33N 47°36' W 122°21'5 7.9
2015-Mar-01 15:52N 47°34' W 122°28'413.3
2015-Mar-01 15:33N 47°35' W 122°34'314.4
2015-Mar-01 15:22N 47°34' W 122°37'4 4.7
2015-Mar-01 14:33N 47°34' W 122°32'415.0
2015-Mar-01 14:16N 47°36' W 122°26'4 5.0
2015-Mar-01 13:33N 47°36' W 122°20'1 9.3
2015-Mar-01 13:26N 47°36' W 122°22'1112.3
2015-Mar-01 12:33N 47°34' W 122°37'0 0.0
2015-Mar-01 11:34N 47°34' W 122°37'0 0.0
2015-Mar-01 11:15N 47°34' W 122°37'0 0.0
2015-Mar-01 10:33N 47°34' W 122°37'0 0.0
2015-Mar-01 09:50N 47°34' W 122°37'0 0.0
2015-Mar-01 09:33N 47°34' W 122°37'0 0.0
2015-Mar-01 08:34N 47°34' W 122°37'0 0.0
2015-Mar-01 07:33N 47°34' W 122°37'0 0.0
2015-Mar-01 06:33N 47°34' W 122°37'5 5.3
2015-Mar-01 05:33N 47°34' W 122°30'014.3
2015-Mar-01 05:33N 47°34' W 122°29'1 0.7
2015-Mar-01 04:34N 47°35' W 122°28'6 9.0
2015-Mar-01 03:53N 47°34' W 122°38'3 8.2
2015-Mar-01 03:33N 47°35' W 122°34'1 9.6
2015-Mar-01 03:27N 47°36' W 122°33'8 9.2
2015-Mar-01 02:32N 47°36' W 122°20'0 7.1
2015-Mar-01 02:28N 47°36' W 122°21'1112.4
2015-Mar-01 01:33N 47°34' W 122°38'0 1.1
2015-Mar-01 01:17N 47°33' W 122°37'912.0
2015-Mar-01 00:34N 47°36' W 122°25'019.6
2015-Mar-01 00:32N 47°36' W 122°24'3 3.0
2015-Feb-28 23:33N 47°35' W 122°28'217.1
2015-Feb-28 23:27N 47°34' W 122°30'5 5.3
2015-Feb-28 22:34N 47°34' W 122°38'4 7.7
2015-Feb-28 22:01N 47°34' W 122°31'816.3
2015-Feb-28 21:33N 47°36' W 122°21'0 2.1
2015-Feb-28 21:31N 47°36' W 122°20'1010.2
2015-Feb-28 20:33N 47°35' W 122°35'215.7
2015-Feb-28 20:26N 47°34' W 122°37'5 6.1
2015-Feb-28 19:33N 47°35' W 122°29'116.2
2015-Feb-28 19:31N 47°35' W 122°28'4 4.0
2015-Feb-28 18:34N 47°36' W 122°23'115.0
2015-Feb-28 18:31N 47°36' W 122°23'1010.2
2015-Feb-28 17:33N 47°34' W 122°38'0 0.6
2015-Feb-28 17:26N 47°34' W 122°37'1113.0
2015-Feb-28 16:33N 47°36' W 122°21'0 0.1
2015-Feb-28 16:10N 47°36' W 122°21'914.5
2015-Feb-28 15:33N 47°35' W 122°34'114.9
2015-Feb-28 15:30N 47°35' W 122°35'2 2.1
2015-Feb-28 14:33N 47°34' W 122°32'5 5.4
2015-Feb-28 13:33N 47°36' W 122°24'9 9.2
2015-Feb-28 12:33N 47°34' W 122°37'0 0.0
2015-Feb-28 11:33N 47°34' W 122°37'0 0.0
2015-Feb-28 10:33N 47°34' W 122°37'0 0.0
2015-Feb-28 09:32N 47°34' W 122°37'0 0.0
2015-Feb-28 08:33N 47°34' W 122°37'0 0.0
2015-Feb-28 07:32N 47°34' W 122°37'0 0.0
2015-Feb-28 06:32N 47°34' W 122°37'4 4.6
2015-Feb-28 05:33N 47°34' W 122°31'617.1
2015-Feb-28 05:13N 47°36' W 122°23'3 3.8
2015-Feb-28 04:33N 47°35' W 122°26'015.2
2015-Feb-28 04:32N 47°35' W 122°27'6 5.8
2015-Feb-28 03:33N 47°35' W 122°35'214.5
2015-Feb-28 03:27N 47°36' W 122°33'9 8.7
2015-Feb-28 02:27N 47°36' W 122°20'414.8
2015-Feb-28 02:12N 47°35' W 122°26'812.6
2015-Feb-28 01:33N 47°34' W 122°38'9 9.2
2015-Feb-28 00:32N 47°36' W 122°24'2 3.1
2015-Feb-27 23:50N 47°36' W 122°21'516.2
2015-Feb-27 23:33N 47°35' W 122°27'116.8
2015-Feb-27 23:30N 47°34' W 122°28'6 6.6
2015-Feb-27 22:33N 47°34' W 122°38'3 8.9
2015-Feb-27 22:15N 47°35' W 122°34'912.2
2015-Feb-27 21:29N 47°36' W 122°20'0 0.0
2015-Feb-27 21:29N 47°36' W 122°20'910.2
2015-Feb-27 20:33N 47°35' W 122°34'310.8
2015-Feb-27 20:19N 47°34' W 122°38'6 8.1
2015-Feb-27 19:33N 47°35' W 122°28'417.0
2015-Feb-27 19:19N 47°36' W 122°23'0 0.2
2015-Feb-27 18:33N 47°36' W 122°23'516.4
2015-Feb-27 18:13N 47°34' W 122°30'5 7.6
2015-Feb-27 17:33N 47°34' W 122°38'0 2.3
2015-Feb-27 17:24N 47°33' W 122°37'1213.5
2015-Feb-27 16:33N 47°36' W 122°21'0 0.4
2015-Feb-27 16:13N 47°36' W 122°21'913.6
2015-Feb-27 15:33N 47°35' W 122°34'116.2
2015-Feb-27 15:28N 47°34' W 122°36'2 2.5
2015-Feb-27 14:34N 47°34' W 122°32'114.1
2015-Feb-27 14:28N 47°34' W 122°30'5 5.1
2015-Feb-27 13:34N 47°36' W 122°24'116.7
2015-Feb-27 13:29N 47°35' W 122°26'8 8.7
2015-Feb-27 12:34N 47°34' W 122°37'0 0.0
2015-Feb-27 12:12N 47°34' W 122°37'0 0.0
2015-Feb-27 11:33N 47°34' W 122°37'0 0.3
2015-Feb-27 11:32N 47°34' W 122°37'0 0.0
2015-Feb-27 10:29N 47°34' W 122°37'0 0.0
2015-Feb-27 09:47N 47°34' W 122°37'0 0.0
2015-Feb-27 09:34N 47°34' W 122°37'0 0.0
2015-Feb-27 08:57N 47°34' W 122°37'0 0.0
2015-Feb-27 08:33N 47°34' W 122°37'0 0.2
2015-Feb-27 08:31N 47°34' W 122°37'0 0.0
2015-Feb-27 07:33N 47°34' W 122°37'0 0.1
2015-Feb-27 07:27N 47°34' W 122°37'0 0.0
2015-Feb-27 06:51N 47°34' W 122°37'0 0.0
2015-Feb-27 06:34N 47°34' W 122°37'5 4.7
2015-Feb-27 05:34N 47°34' W 122°30'119.4
2015-Feb-27 05:31N 47°34' W 122°29'2 2.3
2015-Feb-27 04:33N 47°35' W 122°26'217.4
2015-Feb-27 04:26N 47°34' W 122°29'4 5.0
2015-Feb-27 03:33N 47°34' W 122°36'411.4
2015-Feb-27 03:10N 47°34' W 122°29'610.0
2015-Feb-27 02:33N 47°36' W 122°20'1 5.7
2015-Feb-27 02:21N 47°36' W 122°22'1113.4
2015-Feb-27 01:33N 47°34' W 122°37'0 0.7
2015-Feb-27 01:29N 47°34' W 122°38'9 9.6
2015-Feb-27 00:33N 47°36' W 122°25'2 2.4
2015-Feb-26 23:48N 47°36' W 122°22'417.0
2015-Feb-26 23:33N 47°35' W 122°28'711.4
2015-Feb-26 22:59N 47°34' W 122°38'0 1.1
2015-Feb-26 22:34N 47°33' W 122°37'314.9
2015-Feb-26 22:23N 47°35' W 122°34'9 9.6
2015-Feb-26 21:24N 47°36' W 122°20'0 0.1
2015-Feb-26 21:20N 47°36' W 122°20'1013.6
2015-Feb-26 20:33N 47°34' W 122°36'116.2
2015-Feb-26 20:29N 47°34' W 122°37'6 6.5
2015-Feb-26 19:34N 47°35' W 122°28'116.8
2015-Feb-26 19:29N 47°35' W 122°27'3 3.7
2015-Feb-26 18:33N 47°36' W 122°22'117.0
2015-Feb-26 18:29N 47°36' W 122°24'1010.4
2015-Feb-26 17:33N 47°34' W 122°38'0 1.8
2015-Feb-26 17:23N 47°33' W 122°37'1113.7
2015-Feb-26 16:33N 47°36' W 122°21'0 0.0
2015-Feb-26 16:33N 47°36' W 122°21'9 8.9
2015-Feb-26 15:34N 47°35' W 122°34'311.1
2015-Feb-26 15:18N 47°34' W 122°38'4 5.1
2015-Feb-26 14:33N 47°34' W 122°32'0 4.3
2015-Feb-26 14:33N 47°34' W 122°32'6 5.5
2015-Feb-26 13:33N 47°36' W 122°24'9 9.3
2015-Feb-26 12:33N 47°34' W 122°37'0 0.0
2015-Feb-26 12:06N 47°34' W 122°37'0 0.0
2015-Feb-26 11:33N 47°34' W 122°37'0 0.0
2015-Feb-26 11:21N 47°34' W 122°37'0 0.0
2015-Feb-26 10:33N 47°34' W 122°37'0 0.0
2015-Feb-26 10:21N 47°34' W 122°37'0 0.0
2015-Feb-26 09:33N 47°34' W 122°37'0 0.0
2015-Feb-26 08:33N 47°34' W 122°37'0 0.0
2015-Feb-26 07:38N 47°34' W 122°37'0 0.1
2015-Feb-26 07:33N 47°34' W 122°37'0 0.0
2015-Feb-26 07:08N 47°34' W 122°37'0 0.0
2015-Feb-26 06:58N 47°34' W 122°37'0 0.0
2015-Feb-26 06:33N 47°34' W 122°37'5 4.6
2015-Feb-26 05:34N 47°34' W 122°31'217.0
2015-Feb-26 05:28N 47°35' W 122°28'1 1.3
2015-Feb-26 04:33N 47°35' W 122°27'012.1
2015-Feb-26 04:33N 47°35' W 122°27'6 6.4
2015-Feb-26 03:33N 47°34' W 122°36'048.6
2015-Feb-26 03:33N 47°34' W 122°36'1110.3
2015-Feb-26 02:30N 47°36' W 122°20'0 3.9
2015-Feb-26 02:24N 47°36' W 122°21'1113.4
2015-Feb-26 01:33N 47°34' W 122°38'6 7.3
2015-Feb-26 00:43N 47°34' W 122°29'316.4
2015-Feb-26 00:31N 47°36' W 122°24'116.4
2015-Feb-26 00:28N 47°36' W 122°23'3 3.6
2015-Feb-25 23:34N 47°35' W 122°27'117.7
2015-Feb-25 23:32N 47°35' W 122°28'6 6.6
2015-Feb-25 22:33N 47°34' W 122°38'5 8.1
2015-Feb-25 21:57N 47°34' W 122°30'716.3
2015-Feb-25 21:33N 47°36' W 122°21'0 1.2
2015-Feb-25 21:12N 47°36' W 122°20'914.2
2015-Feb-25 20:34N 47°35' W 122°34'120.8
2015-Feb-25 20:31N 47°35' W 122°35'4 4.3
2015-Feb-25 19:33N 47°35' W 122°29'015.0
2015-Feb-25 19:32N 47°35' W 122°28'4 4.6
2015-Feb-25 18:33N 47°36' W 122°22'217.4
2015-Feb-25 18:26N 47°36' W 122°25'910.0
2015-Feb-25 17:33N 47°34' W 122°38'1 3.1
2015-Feb-25 17:21N 47°34' W 122°37'1113.8
2015-Feb-25 16:33N 47°36' W 122°21'5 7.1
2015-Feb-25 15:55N 47°35' W 122°27'512.8
2015-Feb-25 15:33N 47°35' W 122°34'216.8
2015-Feb-25 15:25N 47°34' W 122°36'3 3.5
2015-Feb-25 14:34N 47°34' W 122°32'215.0
2015-Feb-25 14:24N 47°35' W 122°29'3 3.8
2015-Feb-25 13:33N 47°36' W 122°24'317.3
2015-Feb-25 13:24N 47°35' W 122°28'6 7.7
2015-Feb-25 12:34N 47°34' W 122°37'0 0.1
2015-Feb-25 12:29N 47°34' W 122°37'0 0.0
2015-Feb-25 11:33N 47°34' W 122°37'0 0.0
2015-Feb-25 11:23N 47°34' W 122°37'0 0.0
2015-Feb-25 10:33N 47°34' W 122°37'0 0.0
2015-Feb-25 09:43N 47°34' W 122°37'0 0.0
2015-Feb-25 09:34N 47°34' W 122°37'0 0.0
2015-Feb-25 09:22N 47°34' W 122°37'0 0.0
2015-Feb-25 08:33N 47°34' W 122°37'0 0.5
2015-Feb-25 08:33N 47°34' W 122°37'0 0.0
2015-Feb-25 07:34N 47°34' W 122°37'0 0.0
2015-Feb-25 07:17N 47°34' W 122°37'0 0.0
2015-Feb-25 06:37N 47°34' W 122°37'0 0.0
2015-Feb-25 06:34N 47°34' W 122°37'5 5.1
2015-Feb-25 05:33N 47°34' W 122°30'517.3
2015-Feb-25 05:16N 47°36' W 122°23'4 5.1
2015-Feb-25 04:33N 47°35' W 122°28'510.9
2015-Feb-25 04:07N 47°35' W 122°35'1 1.6
2015-Feb-25 03:33N 47°35' W 122°34'713.6
2015-Feb-25 03:02N 47°36' W 122°24'2 4.8
2015-Feb-25 02:33N 47°36' W 122°20'1211.8
2015-Feb-25 01:33N 47°34' W 122°37'4 5.6
2015-Feb-25 00:54N 47°35' W 122°32'515.1
2015-Feb-25 00:33N 47°36' W 122°25'1 1.8
2015-Feb-24 23:47N 47°36' W 122°23'416.4
2015-Feb-24 23:33N 47°35' W 122°28'513.2
2015-Feb-24 23:12N 47°35' W 122°34'3 3.9
2015-Feb-24 22:34N 47°34' W 122°38'1211.4
2015-Feb-24 21:32N 47°36' W 122°20'1 3.0
2015-Feb-24 21:07N 47°36' W 122°22'814.7
2015-Feb-24 20:34N 47°35' W 122°34'014.3
2015-Feb-24 20:33N 47°35' W 122°35'4 4.4
2015-Feb-24 19:33N 47°35' W 122°28'119.8
2015-Feb-24 19:31N 47°35' W 122°27'4 4.2
2015-Feb-24 18:33N 47°36' W 122°21'123.7
2015-Feb-24 18:31N 47°36' W 122°23'1010.7
2015-Feb-24 17:33N 47°34' W 122°38'1 4.8
2015-Feb-24 17:27N 47°33' W 122°37'11 9.7
2015-Feb-24 16:17N 47°36' W 122°20'212.9
2015-Feb-24 16:06N 47°36' W 122°24'713.1
2015-Feb-24 15:33N 47°35' W 122°34'2 2.3
2015-Feb-24 14:34N 47°34' W 122°31'213.3
2015-Feb-24 14:25N 47°35' W 122°29'3 3.0
2015-Feb-24 13:33N 47°36' W 122°25'116.9
2015-Feb-24 13:30N 47°35' W 122°26'8 8.1
2015-Feb-24 12:33N 47°34' W 122°37'0 0.0
2015-Feb-24 12:29N 47°34' W 122°37'0 0.0
2015-Feb-24 11:34N 47°34' W 122°37'0 0.0
2015-Feb-24 11:29N 47°34' W 122°37'0 0.0
2015-Feb-24 10:34N 47°34' W 122°37'0 0.0
2015-Feb-24 10:13N 47°34' W 122°37'0 0.0
2015-Feb-24 09:33N 47°34' W 122°37'0 0.0
2015-Feb-24 09:29N 47°34' W 122°37'0 0.0
2015-Feb-24 08:34N 47°34' W 122°37'0 0.0
2015-Feb-24 08:33N 47°34' W 122°37'0 0.0
2015-Feb-24 07:34N 47°34' W 122°37'0 0.0
2015-Feb-24 07:33N 47°34' W 122°37'0 0.0
2015-Feb-24 07:08N 47°34' W 122°37'0 0.0
2015-Feb-24 06:33N 47°34' W 122°37'5 4.7
2015-Feb-24 05:33N 47°34' W 122°30'014.9
2015-Feb-24 05:33N 47°34' W 122°30'3 2.6
2015-Feb-24 04:33N 47°35' W 122°27'0 0.0
2015-Feb-24 04:33N 47°35' W 122°27'6 6.3
2015-Feb-24 03:33N 47°34' W 122°36'713.2
2015-Feb-24 03:03N 47°35' W 122°26'4 7.5
2015-Feb-24 02:33N 47°36' W 122°20'1012.6
2015-Feb-24 01:47N 47°35' W 122°34'310.8
2015-Feb-24 01:33N 47°34' W 122°38'0 0.0
2015-Feb-24 01:32N 47°34' W 122°38'1010.3
2015-Feb-24 00:33N 47°36' W 122°23'4 3.9
2015-Feb-23 23:34N 47°34' W 122°28'215.6
2015-Feb-23 23:24N 47°34' W 122°32'4 4.5
2015-Feb-23 22:34N 47°34' W 122°38'0 3.2
2015-Feb-23 22:25N 47°33' W 122°37'1110.6
2015-Feb-23 21:20N 47°36' W 122°20'2 8.1
2015-Feb-23 21:04N 47°36' W 122°24'714.5
2015-Feb-23 20:34N 47°35' W 122°34'118.1
2015-Feb-23 20:30N 47°34' W 122°36'4 4.8
2015-Feb-23 19:34N 47°35' W 122°29'117.0
2015-Feb-23 19:29N 47°35' W 122°27'4 4.1
2015-Feb-23 18:34N 47°36' W 122°22'117.4
2015-Feb-23 18:29N 47°36' W 122°24'1010.4
2015-Feb-23 17:33N 47°34' W 122°38'6 9.0
2015-Feb-23 16:53N 47°35' W 122°29'516.1
2015-Feb-23 16:33N 47°36' W 122°21'1 2.4
2015-Feb-23 16:08N 47°36' W 122°23'813.8
2015-Feb-23 15:34N 47°35' W 122°34'0 8.1
2015-Feb-23 15:33N 47°35' W 122°34'2 1.9
2015-Feb-23 14:33N 47°34' W 122°32'112.5
2015-Feb-23 14:28N 47°34' W 122°30'4 4.1
2015-Feb-23 13:33N 47°36' W 122°25'910.3
2015-Feb-23 12:43N 47°34' W 122°37'0 0.0
2015-Feb-23 12:33N 47°34' W 122°37'0 0.0
2015-Feb-23 12:33N 47°34' W 122°37'0 0.0
2015-Feb-23 11:33N 47°34' W 122°37'0 0.0
2015-Feb-23 11:33N 47°34' W 122°37'0 0.0
2015-Feb-23 10:33N 47°34' W 122°37'0 0.0
2015-Feb-23 10:32N 47°34' W 122°37'0 0.0
2015-Feb-23 09:33N 47°34' W 122°37'0 0.0
2015-Feb-23 09:32N 47°34' W 122°37'0 0.0
2015-Feb-23 08:33N 47°34' W 122°37'0 0.0
2015-Feb-23 08:33N 47°34' W 122°37'0 0.0
2015-Feb-23 07:33N 47°34' W 122°37'0 0.2
2015-Feb-23 07:32N 47°34' W 122°37'0 0.0
2015-Feb-23 07:02N 47°34' W 122°37'0 0.0
2015-Feb-23 06:33N 47°34' W 122°37'5 4.8
2015-Feb-23 05:33N 47°34' W 122°30'013.9
2015-Feb-23 05:32N 47°34' W 122°30'2 1.9
2015-Feb-23 04:34N 47°35' W 122°27'115.7
2015-Feb-23 04:31N 47°35' W 122°28'4 4.5
2015-Feb-23 03:34N 47°35' W 122°35'111.1
2015-Feb-23 03:26N 47°35' W 122°32'8 8.9
2015-Feb-23 02:33N 47°36' W 122°21'0 0.1
2015-Feb-23 02:31N 47°36' W 122°21'1111.8
2015-Feb-23 01:33N 47°33' W 122°37'0 6.3
2015-Feb-23 01:30N 47°34' W 122°38'9 9.2
2015-Feb-23 00:33N 47°36' W 122°25'115.7
2015-Feb-23 00:31N 47°36' W 122°24'4 3.8
2015-Feb-22 23:33N 47°34' W 122°29'6 6.0
2015-Feb-22 22:33N 47°34' W 122°37'0 4.3
2015-Feb-22 22:33N 47°34' W 122°37'1211.8
2015-Feb-22 21:33N 47°36' W 122°20'0 0.0
2015-Feb-22 21:17N 47°36' W 122°20'1013.9
2015-Feb-22 20:33N 47°35' W 122°35'015.2
2015-Feb-22 20:32N 47°34' W 122°36'5 4.9
2015-Feb-22 19:34N 47°35' W 122°28'  

Dump ship's entire track history